Abingdon, VA

12:38 PM EST am 24. November 2014 (GMT -0500)
Country Club Estates | Change Station
CLOSE
Current Station
Persönliche Wetterstationen
Location: Abingdon, VA
Höhe: 1990 ft
Wetterstationen in der Umgebung
aktive Warnung: Wind Advisory aktiver Hinweis: Public Information Statement

Höhe 1990 ft 36.69 °N, 81.97 °W | Updated 1 second ago

Teils Wolkig
Teils Wolkig
69.1 °F
gefühlte 69.1 °F
N
19.6
Wind Wechselnd Wind aus Nord
Gusts 19.6 mph

Heute
Max. -- | schwach -- °F
--% Regenrisiko
Gestern
Max. -- | schwach -- °F
Precip. -- inch
7:15 AM 5:13 PM
Erstes Viertel, 6% visible
Druck 29.70 inch
Sichtweite 10.0 Meilen
Wolken Teils Wolkig 6500 ft
Taupunkt 48 °F
Feuchtigkeit 47%
Regen 0.00 inch
Schneehöhe Nicht verfügbar..
UV 3 von 12
Pollen 1.20 von 12
Luftqualität Nicht verfügbar..
Flu Activity Nicht verfügbar..
METAR KVJI 241655Z AUTO 28018G23KT 10SM SCT065 21/06 A2970 RMK AO2 T02060062

More Conditions Fewer Conditions

Druck 29.70 inch
Sichtweite 10.0 Meilen
Wolken Teils Wolkig 6500 ft
Taupunkt 48 °F
Feuchtigkeit 47%
Regen 0.00 inch
Schneehöhe Nicht verfügbar..
UV 3 von 12
Pollen 1.20 von 12
Luftqualität Nicht verfügbar..
Flu Activity Nicht verfügbar..
METAR KVJI 241655Z AUTO 28018G23KT 10SM SCT065 21/06 A2970 RMK AO2 T02060062

More Conditions Fewer Conditions

10-Day Weather Forecast

Almanac

Astronomie

Nov. 24, 2014 Aufgang Untergang
Genaue Zeit
Bürgerliche Dämmerung
Nautische Dämmerung
Astronomische Dämmerung
Mond
Länge des sichtbaren Lichts
Tageslänge
Tomorrow will be .
, % of the Moon is Illuminated

Heutige Rekorde

State Highs State Lows

Community

WunderPhotos

Upload Photos

1,773,378 Fotos hochgeladen!

WunderBlogs® & News

Nearby

Luftqualität

  Luftqualität LQ Index Schadstoff
Not available.

Schneehöhe

Station Depth Höhe

Erdbebenaktivität

Stadt Distance Mag. Time & Date
Minimum magnitude displayed is 2.5.

küstennahe Wassertemperaturen

Ort Temperatur

Wetterstationen in der Umgebung